createdAt,value
2024-04-22T00:02:21.626Z,76.53
2024-04-22T00:05:24.105Z,76.89
2024-04-22T00:08:28.305Z,77.52
2024-04-22T00:11:30.787Z,77.98
2024-04-22T00:14:33.253Z,78.16
2024-04-22T00:17:35.817Z,78.10
2024-04-22T00:20:41.364Z,77.93
2024-04-22T00:23:43.861Z,78.23
2024-04-22T00:26:46.328Z,78.64
2024-04-22T00:29:48.785Z,78.64
2024-04-22T00:32:51.313Z,77.71
2024-04-22T00:36:00.547Z,77.34
2024-04-22T00:39:03.220Z,78.87
2024-04-22T00:42:05.869Z,78.84
2024-04-22T00:45:08.448Z,78.51
2024-04-22T00:48:10.978Z,77.85
2024-04-22T00:51:13.482Z,77.43
2024-04-22T00:54:15.955Z,77.22
2024-04-22T00:57:18.403Z,77.58
2024-04-22T01:00:20.921Z,77.08
2024-04-22T01:03:23.422Z,77.61
2024-04-22T01:06:25.904Z,77.96
2024-04-22T01:09:28.384Z,77.97
2024-04-22T01:12:30.834Z,78.44
2024-04-22T01:15:33.875Z,79.36
2024-04-22T01:18:36.980Z,78.93
2024-04-22T01:21:39.440Z,79.21
2024-04-22T01:24:41.928Z,79.38
2024-04-22T01:27:44.431Z,79.34
2024-04-22T01:30:47.071Z,79.41
2024-04-22T01:33:49.549Z,78.92
2024-04-22T01:36:52.119Z,78.68
2024-04-22T01:39:54.685Z,78.71
2024-04-22T01:42:57.158Z,78.61
2024-04-22T01:45:59.663Z,78.53
2024-04-22T01:49:02.199Z,78.57
2024-04-22T01:52:05.044Z,78.46
2024-04-22T01:55:10.754Z,78.25
2024-04-22T01:58:13.811Z,78.61
2024-04-22T02:01:16.378Z,78.31
2024-04-22T02:04:18.917Z,78.70
2024-04-22T02:07:21.415Z,78.29
2024-04-22T02:10:24.528Z,77.88
2024-04-22T02:13:27.142Z,77.92
2024-04-22T02:16:29.687Z,78.46
2024-04-22T02:19:32.260Z,78.44
2024-04-22T02:22:34.790Z,78.80
2024-04-22T02:25:37.314Z,79.02
2024-04-22T02:28:39.981Z,78.52
2024-04-22T02:31:43.526Z,79.07
2024-04-22T02:34:46.043Z,78.52
2024-04-22T02:37:48.527Z,78.21
2024-04-22T02:40:51.008Z,78.61
2024-04-22T02:43:53.463Z,78.86
2024-04-22T02:46:55.944Z,78.97
2024-04-22T02:49:58.475Z,78.73
2024-04-22T02:53:00.908Z,79.18
2024-04-22T02:56:03.448Z,79.92
2024-04-22T02:59:05.893Z,80.63
2024-04-22T03:02:08.333Z,81.09
2024-04-22T03:05:10.829Z,81.30
2024-04-22T03:08:13.287Z,81.20
2024-04-22T03:11:15.746Z,81.22
2024-04-22T03:14:18.218Z,81.16
2024-04-22T03:17:20.799Z,80.74
2024-04-22T03:20:24.666Z,80.80
2024-04-22T03:23:29.078Z,80.93
2024-04-22T03:26:31.494Z,80.26
2024-04-22T03:29:33.947Z,80.20
2024-04-22T03:32:36.601Z,80.29
2024-04-22T03:35:39.099Z,80.63
2024-04-22T03:38:41.563Z,80.85
2024-04-22T03:41:44.011Z,80.85
2024-04-22T03:44:46.471Z,80.80
2024-04-22T03:48:07.493Z,80.65
2024-04-22T03:51:09.966Z,80.57
2024-04-22T03:54:12.419Z,80.56
2024-04-22T03:57:14.936Z,80.35
2024-04-22T04:00:17.408Z,80.95
2024-04-22T04:03:19.876Z,80.91
2024-04-22T04:06:22.405Z,80.59
2024-04-22T04:09:24.991Z,86.88
2024-04-22T04:12:27.445Z,82.52
2024-04-22T04:15:30.595Z,87.88
2024-04-22T04:18:33.115Z,78.30
2024-04-22T04:21:35.547Z,73.04
2024-04-22T04:24:38.016Z,68.59
2024-04-22T04:27:40.489Z,65.03
2024-04-22T04:30:42.935Z,63.50
2024-04-22T04:33:45.549Z,63.13
2024-04-22T04:36:48.033Z,63.54
2024-04-22T04:39:50.516Z,65.42
2024-04-22T04:42:53.301Z,63.94
2024-04-22T04:45:55.868Z,68.26
2024-04-22T04:48:58.367Z,71.97
2024-04-22T04:52:00.810Z,74.75
2024-04-22T04:55:03.280Z,76.31
2024-04-22T04:58:06.794Z,76.91
2024-04-22T05:01:09.420Z,77.72
2024-04-22T05:04:11.996Z,78.57
2024-04-22T05:07:15.713Z,78.75
2024-04-22T05:10:18.604Z,79.42
2024-04-22T05:13:21.122Z,78.75
2024-04-22T05:16:23.667Z,79.32
2024-04-22T05:19:26.225Z,78.79
2024-04-22T05:22:28.721Z,78.82
2024-04-22T05:25:31.243Z,78.93
2024-04-22T05:28:33.776Z,78.95
2024-04-22T05:31:36.332Z,79.18
2024-04-22T05:34:57.411Z,78.81
2024-04-22T05:37:59.846Z,78.37
2024-04-22T05:41:02.395Z,78.24
2024-04-22T05:44:04.951Z,78.32
2024-04-22T05:47:07.497Z,77.41
2024-04-22T05:50:09.972Z,77.82
2024-04-22T05:53:12.427Z,77.88
2024-04-22T05:56:14.882Z,77.60
2024-04-22T05:59:17.443Z,78.03
2024-04-22T06:02:19.905Z,77.66
2024-04-22T06:05:22.511Z,78.46
2024-04-22T06:08:24.988Z,77.25
2024-04-22T06:11:27.632Z,77.15
2024-04-22T06:14:30.082Z,76.73
2024-04-22T06:17:36.426Z,76.98
2024-04-22T06:20:39.621Z,77.35
2024-04-22T06:23:42.069Z,77.62
2024-04-22T06:26:44.593Z,78.22
2024-04-22T06:29:47.025Z,77.91
2024-04-22T06:32:50.924Z,77.95
2024-04-22T06:35:53.509Z,77.99
2024-04-22T06:38:56.019Z,78.19
2024-04-22T06:41:58.443Z,77.50
2024-04-22T06:45:00.885Z,76.80
2024-04-22T06:48:03.444Z,76.24
2024-04-22T06:51:07.388Z,75.55
2024-04-22T06:54:09.852Z,73.37
2024-04-22T06:57:12.348Z,72.51
2024-04-22T07:00:15.049Z,72.84
2024-04-22T07:03:17.655Z,72.14
2024-04-22T07:06:23.360Z,71.13
2024-04-22T07:09:26.143Z,70.67
2024-04-22T07:12:28.625Z,70.68
2024-04-22T07:15:31.139Z,69.96
2024-04-22T07:18:33.611Z,70.16
2024-04-22T07:21:36.115Z,70.13
2024-04-22T07:27:41.926Z,68.83
2024-04-22T07:30:44.606Z,69.35
2024-04-22T07:33:47.360Z,68.69
2024-04-22T07:36:56.671Z,68.29
2024-04-22T07:40:12.037Z,68.21
2024-04-22T07:43:14.520Z,69.28
2024-04-22T07:46:17.366Z,68.49
2024-04-22T07:49:19.935Z,68.25
2024-04-22T07:52:22.963Z,68.88
2024-04-22T07:55:26.899Z,68.54
2024-04-22T07:58:29.691Z,68.14
2024-04-22T08:01:33.334Z,68.62
2024-04-22T08:04:36.197Z,67.46
2024-04-22T08:07:40.682Z,67.69
2024-04-22T08:10:43.355Z,68.36
2024-04-22T08:13:45.961Z,67.66
2024-04-22T08:16:48.552Z,67.33
2024-04-22T08:19:51.253Z,66.95
2024-04-22T08:22:54.165Z,66.73
2024-04-22T08:25:56.598Z,66.91
2024-04-22T08:29:00.393Z,67.78
2024-04-22T08:32:03.259Z,66.27
2024-04-22T08:35:06.122Z,66.02
2024-04-22T08:38:11.054Z,66.31
2024-04-22T08:41:16.279Z,67.08
2024-04-22T08:44:18.730Z,66.37
2024-04-22T08:47:21.582Z,66.43
2024-04-22T08:50:24.094Z,65.78
2024-04-22T08:53:26.596Z,66.29
2024-04-22T08:56:29.064Z,67.08
2024-04-22T08:59:38.199Z,66.43
2024-04-22T09:02:43.493Z,66.78
2024-04-22T09:05:46.230Z,65.68
2024-04-22T09:08:49.119Z,65.52
2024-04-22T09:12:08.077Z,65.72
2024-04-22T09:15:16.049Z,65.08
2024-04-22T09:18:18.786Z,64.89
2024-04-22T09:21:21.418Z,64.52
2024-04-22T09:24:23.865Z,64.29
2024-04-22T09:27:29.041Z,63.86
2024-04-22T09:30:34.903Z,64.50
2024-04-22T09:33:38.279Z,64.42
2024-04-22T09:36:41.379Z,64.35
2024-04-22T09:39:43.915Z,64.96
2024-04-22T09:42:48.908Z,64.11
2024-04-22T09:45:52.480Z,63.29
2024-04-22T09:48:57.171Z,61.28
2024-04-22T09:52:00.982Z,60.62
2024-04-22T09:55:04.181Z,59.86
2024-04-22T09:58:07.076Z,60.05
2024-04-22T10:01:09.743Z,59.37
2024-04-22T10:04:14.007Z,56.87
2024-04-22T10:07:17.429Z,57.07
2024-04-22T10:10:20.251Z,57.00
2024-04-22T10:13:28.964Z,57.27
2024-04-22T10:16:31.462Z,56.16
2024-04-22T10:19:37.989Z,55.25
2024-04-22T10:22:41.100Z,54.30
2024-04-22T10:25:44.195Z,55.48
2024-04-22T10:28:47.629Z,55.63
2024-04-22T10:31:50.804Z,56.06
2024-04-22T10:34:53.897Z,55.51
2024-04-22T10:37:58.352Z,53.94
2024-04-22T10:41:00.968Z,54.77
2024-04-22T10:44:03.480Z,54.04
2024-04-22T10:47:08.305Z,53.80
2024-04-22T10:50:15.818Z,54.27
2024-04-22T10:53:20.903Z,54.73
2024-04-22T10:56:23.827Z,55.13
2024-04-22T10:59:26.437Z,54.92
2024-04-22T11:02:29.465Z,55.60
2024-04-22T11:05:32.714Z,55.72
2024-04-22T11:08:35.482Z,55.61
2024-04-22T11:11:38.195Z,55.46
2024-04-22T11:14:40.735Z,55.10
2024-04-22T11:17:43.343Z,55.39
2024-04-22T11:20:45.844Z,55.44
2024-04-22T11:23:52.568Z,55.53
2024-04-22T11:26:55.033Z,55.37
2024-04-22T11:29:57.621Z,55.30
2024-04-22T11:33:03.722Z,54.77
2024-04-22T11:36:06.568Z,54.39
2024-04-22T11:39:13.113Z,53.87
2024-04-22T11:42:15.728Z,53.68
2024-04-22T11:45:20.570Z,51.05
2024-04-22T11:48:23.045Z,47.43
2024-04-22T11:51:25.494Z,45.36
2024-04-22T11:54:27.943Z,45.72
2024-04-22T11:57:32.639Z,46.90
2024-04-22T12:00:37.500Z,47.02
2024-04-22T12:03:40.094Z,46.27
2024-04-22T12:06:44.647Z,46.27
2024-04-22T12:09:47.155Z,44.81
2024-04-22T12:12:49.635Z,44.61
2024-04-22T12:15:52.769Z,45.78
2024-04-22T12:18:55.484Z,46.13
2024-04-22T12:21:57.980Z,44.87
2024-04-22T12:25:00.463Z,44.88
2024-04-22T12:28:10.098Z,43.78
2024-04-22T12:31:16.798Z,44.39
2024-04-22T12:34:19.471Z,46.04
2024-04-22T12:37:23.542Z,45.28
2024-04-22T12:40:29.279Z,46.27
2024-04-22T12:43:39.290Z,47.08
2024-04-22T12:47:02.915Z,47.47
2024-04-22T12:50:23.840Z,47.56
2024-04-22T12:53:26.524Z,45.83
2024-04-22T12:56:29.566Z,46.15
2024-04-22T12:59:32.022Z,44.42
2024-04-22T13:02:35.088Z,43.64
2024-04-22T13:05:37.656Z,42.28
2024-04-22T13:08:40.103Z,42.63
2024-04-22T13:11:42.634Z,41.73
2024-04-22T13:14:45.099Z,41.30
2024-04-22T13:17:47.642Z,42.63
2024-04-22T13:20:50.212Z,41.81
2024-04-22T13:23:52.867Z,41.43
2024-04-22T13:26:55.356Z,42.30
2024-04-22T13:29:59.401Z,42.93
2024-04-22T13:33:02.563Z,42.45
2024-04-22T13:36:06.350Z,42.84
2024-04-22T13:39:08.895Z,42.37
2024-04-22T13:42:11.390Z,43.09
2024-04-22T13:45:13.899Z,44.01
2024-04-22T13:48:16.481Z,43.64
2024-04-22T13:51:19.162Z,43.23
2024-04-22T13:54:21.609Z,44.64
2024-04-22T13:57:24.063Z,44.22
2024-04-22T14:00:26.575Z,43.20
2024-04-22T14:03:29.097Z,41.97
2024-04-22T14:06:31.623Z,42.25
2024-04-22T14:09:34.266Z,43.37
2024-04-22T14:12:36.717Z,43.28
2024-04-22T14:15:46.693Z,42.14
2024-04-22T14:18:51.655Z,42.37
2024-04-22T14:21:54.095Z,43.13
2024-04-22T14:24:56.619Z,43.22
2024-04-22T14:28:01.880Z,44.13
2024-04-22T14:31:04.533Z,44.24
2024-04-22T14:34:07.617Z,44.09
2024-04-22T14:37:10.120Z,44.49
2024-04-22T14:40:12.705Z,44.39
2024-04-22T14:43:15.185Z,44.52
2024-04-22T14:46:19.280Z,45.37
2024-04-22T14:49:21.799Z,45.55
2024-04-22T14:52:24.340Z,44.50
2024-04-22T14:55:26.959Z,44.08
2024-04-22T14:58:29.534Z,43.17
2024-04-22T15:01:32.041Z,43.75
2024-04-22T15:04:34.713Z,43.78
2024-04-22T15:07:37.286Z,45.26
2024-04-22T15:10:57.813Z,47.55
2024-04-22T15:14:00.361Z,48.08
2024-04-22T15:17:02.995Z,48.30
2024-04-22T15:20:06.137Z,48.72
2024-04-22T15:23:08.621Z,47.86
2024-04-22T15:26:11.122Z,47.66
2024-04-22T15:29:13.587Z,47.22
2024-04-22T15:32:16.089Z,46.70
2024-04-22T15:35:18.596Z,45.86
2024-04-22T15:38:21.038Z,45.83
2024-04-22T15:41:23.610Z,46.88
2024-04-22T15:44:26.079Z,46.68
2024-04-22T15:47:28.616Z,46.75
2024-04-22T15:50:33.123Z,47.54
2024-04-22T15:53:35.678Z,48.00
2024-04-22T15:56:41.521Z,48.71
2024-04-22T15:59:55.307Z,48.80
2024-04-22T16:03:04.699Z,49.14
2024-04-22T16:06:07.340Z,49.58
2024-04-22T16:09:12.446Z,50.05
2024-04-22T16:12:14.914Z,50.77
2024-04-22T16:15:17.451Z,51.11
2024-04-22T16:18:20.027Z,50.65
2024-04-22T16:21:22.701Z,51.07
2024-04-22T16:24:25.170Z,51.30
2024-04-22T16:27:27.884Z,51.67
2024-04-22T16:30:30.361Z,51.90
2024-04-22T16:33:32.807Z,51.87
2024-04-22T16:36:35.267Z,51.05
2024-04-22T16:39:39.974Z,51.53
2024-04-22T16:42:42.525Z,51.88
2024-04-22T16:45:45.054Z,51.61
2024-04-22T16:48:47.684Z,51.47
2024-04-22T16:51:50.177Z,51.69
2024-04-22T16:54:52.638Z,51.68
2024-04-22T16:57:55.088Z,52.15
2024-04-22T17:00:57.550Z,52.40
2024-04-22T17:07:04.487Z,52.43
2024-04-22T17:10:07.738Z,52.59
2024-04-22T17:13:10.259Z,53.01
2024-04-22T17:16:12.984Z,52.11
2024-04-22T17:19:15.448Z,52.91
2024-04-22T17:22:18.016Z,53.44
2024-04-22T17:25:20.535Z,53.47
2024-04-22T17:28:23.324Z,54.20
2024-04-22T17:31:27.337Z,54.19
2024-04-22T17:34:29.868Z,55.00
2024-04-22T17:37:33.036Z,55.01
2024-04-22T17:40:35.992Z,55.73
2024-04-22T17:43:39.035Z,55.85
2024-04-22T17:46:41.760Z,55.74
2024-04-22T17:49:45.246Z,56.16
2024-04-22T17:52:47.764Z,56.37
2024-04-22T17:55:53.467Z,56.97
2024-04-22T17:58:56.100Z,56.95
2024-04-22T18:01:58.645Z,56.90
2024-04-22T18:05:01.896Z,57.31
2024-04-22T18:08:07.644Z,57.77
2024-04-22T18:11:10.187Z,57.77
2024-04-22T18:14:12.646Z,58.34
2024-04-22T18:17:15.144Z,58.57
2024-04-22T18:20:18.842Z,58.97
2024-04-22T18:23:21.357Z,58.91
2024-04-22T18:26:23.845Z,59.53
2024-04-22T18:29:26.326Z,59.78
2024-04-22T18:32:28.948Z,59.93
2024-04-22T18:35:31.478Z,60.07
2024-04-22T18:38:33.987Z,60.16
2024-04-22T18:41:36.485Z,60.38
2024-04-22T18:44:38.985Z,60.85
2024-04-22T18:47:41.543Z,61.01
2024-04-22T18:50:44.040Z,61.26
2024-04-22T18:53:46.504Z,61.79
2024-04-22T18:56:48.959Z,62.09
2024-04-22T18:59:51.406Z,62.49
2024-04-22T19:02:53.928Z,62.95
2024-04-22T19:05:56.423Z,63.46
2024-04-22T19:08:58.897Z,63.98
2024-04-22T19:12:01.374Z,63.70
2024-04-22T19:15:06.414Z,64.30
2024-04-22T19:18:10.468Z,64.22
2024-04-22T19:21:12.931Z,64.80
2024-04-22T19:24:16.772Z,65.04
2024-04-22T19:27:19.294Z,65.28
2024-04-22T19:30:21.759Z,66.05
2024-04-22T19:33:24.275Z,66.21
2024-04-22T19:36:26.812Z,66.42
2024-04-22T19:39:29.544Z,66.40
2024-04-22T19:42:32.025Z,66.82
2024-04-22T19:45:34.571Z,67.14
2024-04-22T19:48:37.050Z,66.95
2024-04-22T19:51:39.519Z,67.32
2024-04-22T19:54:41.983Z,67.43
2024-04-22T19:57:44.482Z,67.19
2024-04-22T20:00:47.071Z,68.15
2024-04-22T20:03:49.640Z,68.27
2024-04-22T20:06:52.107Z,68.55
2024-04-22T20:09:54.595Z,68.78
2024-04-22T20:12:57.090Z,69.14
2024-04-22T20:16:16.229Z,69.56
2024-04-22T20:19:19.525Z,69.47
2024-04-22T20:22:22.060Z,69.53
2024-04-22T20:25:27.704Z,69.69
2024-04-22T20:28:30.235Z,69.84
2024-04-22T20:31:32.854Z,69.98
2024-04-22T20:34:35.352Z,69.93
2024-04-22T20:37:37.953Z,70.28
2024-04-22T20:40:40.515Z,70.39
2024-04-22T20:43:43.362Z,69.91
2024-04-22T20:46:45.902Z,70.20
2024-04-22T20:49:50.512Z,70.16
2024-04-22T20:52:54.960Z,70.37
2024-04-22T20:56:03.031Z,70.45
2024-04-22T20:59:05.626Z,70.27
2024-04-22T21:02:08.219Z,70.25
2024-04-22T21:05:10.841Z,70.18
2024-04-22T21:08:15.351Z,70.24
2024-04-22T21:11:18.949Z,70.56
2024-04-22T21:14:21.500Z,70.58
2024-04-22T21:17:24.427Z,71.19
2024-04-22T21:20:26.931Z,71.02
2024-04-22T21:23:31.882Z,71.22
2024-04-22T21:26:34.361Z,71.05
2024-04-22T21:29:36.861Z,71.19
2024-04-22T21:32:39.474Z,71.56
2024-04-22T21:35:42.120Z,71.35
2024-04-22T21:38:44.654Z,71.29
2024-04-22T21:41:47.143Z,71.56
2024-04-22T21:44:49.648Z,71.66
2024-04-22T21:47:52.456Z,71.71
2024-04-22T21:50:54.991Z,71.66
2024-04-22T21:53:57.426Z,71.59
2024-04-22T21:57:37.731Z,71.63
2024-04-22T22:01:17.932Z,71.70
2024-04-22T22:04:58.265Z,71.65
2024-04-22T22:08:00.756Z,71.61
2024-04-22T22:11:03.626Z,71.84
2024-04-22T22:14:06.211Z,71.77
2024-04-22T22:17:08.976Z,71.70
2024-04-22T22:20:11.919Z,71.80
2024-04-22T22:23:14.332Z,72.08
2024-04-22T22:26:16.847Z,71.87
2024-04-22T22:29:19.297Z,72.29
2024-04-22T22:32:21.918Z,72.34
2024-04-22T22:35:24.538Z,72.09
2024-04-22T22:38:26.995Z,72.27
2024-04-22T22:41:30.173Z,72.11
2024-04-22T22:44:32.779Z,72.10
2024-04-22T22:47:35.317Z,71.84
2024-04-22T22:50:38.005Z,72.05
2024-04-22T22:53:40.432Z,72.09
2024-04-22T22:56:42.905Z,72.19
2024-04-22T22:59:45.314Z,72.35
2024-04-22T23:02:48.779Z,72.23
2024-04-22T23:05:51.279Z,71.68
2024-04-22T23:08:53.686Z,72.06
2024-04-22T23:11:56.286Z,71.93
2024-04-22T23:14:58.751Z,72.10
2024-04-22T23:18:04.080Z,72.15
2024-04-22T23:21:06.576Z,72.63
2024-04-22T23:24:09.168Z,72.33
2024-04-22T23:27:11.623Z,72.57
2024-04-22T23:30:14.292Z,72.96
2024-04-22T23:33:16.845Z,72.64
2024-04-22T23:36:19.315Z,72.62
2024-04-22T23:39:21.776Z,72.71
2024-04-22T23:42:24.179Z,72.48
2024-04-22T23:45:26.647Z,72.65
2024-04-22T23:48:29.119Z,72.76
2024-04-22T23:51:31.567Z,72.96
2024-04-22T23:54:34.041Z,72.67
2024-04-22T23:57:36.499Z,72.85
